sensor_id;sensor_type;location;lat;lon;timestamp;temperature;humidity
51853;DHT22;37894;53.172;6.598;2022-11-20T00:00:47;0.20;99.90
51853;DHT22;37894;53.172;6.598;2022-11-20T00:08:05;0.00;99.90
51853;DHT22;37894;53.172;6.598;2022-11-20T00:13:00;0.20;99.90
51853;DHT22;37894;53.172;6.598;2022-11-20T00:15:26;0.30;99.90
51853;DHT22;37894;53.172;6.598;2022-11-20T00:20:17;0.30;99.90
51853;DHT22;37894;53.172;6.598;2022-11-20T00:22:43;-0.60;99.90
51853;DHT22;37894;53.172;6.598;2022-11-20T00:25:09;1.00;99.90
51853;DHT22;37894;53.172;6.598;2022-11-20T00:27:36;0.40;99.90
51853;DHT22;37894;53.172;6.598;2022-11-20T00:30:03;0.30;99.90
51853;DHT22;37894;53.172;6.598;2022-11-20T00:32:29;0.30;99.90
51853;DHT22;37894;53.172;6.598;2022-11-20T00:39:47;0.40;99.90
51853;DHT22;37894;53.172;6.598;2022-11-20T00:42:13;0.60;99.90
51853;DHT22;37894;53.172;6.598;2022-11-20T00:44:39;1.50;99.90
51853;DHT22;37894;53.172;6.598;2022-11-20T00:51:57;0.40;99.90
51853;DHT22;37894;53.172;6.598;2022-11-20T00:59:14;0.40;99.90
51853;DHT22;37894;53.172;6.598;2022-11-20T01:01:40;-0.50;99.90
51853;DHT22;37894;53.172;6.598;2022-11-20T01:06:37;0.40;99.90
51853;DHT22;37894;53.172;6.598;2022-11-20T01:09:10;0.20;99.90
51853;DHT22;37894;53.172;6.598;2022-11-20T01:11:38;0.40;99.90
51853;DHT22;37894;53.172;6.598;2022-11-20T01:14:06;0.30;99.90
51853;DHT22;37894;53.172;6.598;2022-11-20T01:16:35;0.30;99.90
51853;DHT22;37894;53.172;6.598;2022-11-20T01:19:03;0.60;99.90
51853;DHT22;37894;53.172;6.598;2022-11-20T01:21:31;0.60;99.90
51853;DHT22;37894;53.172;6.598;2022-11-20T01:23:58;0.60;99.90
51853;DHT22;37894;53.172;6.598;2022-11-20T01:26:27;0.50;99.90
51853;DHT22;37894;53.172;6.598;2022-11-20T01:28:54;0.50;99.90
51853;DHT22;37894;53.172;6.598;2022-11-20T01:31:23;0.70;99.90
51853;DHT22;37894;53.172;6.598;2022-11-20T01:33:51;0.40;99.90
51853;DHT22;37894;53.172;6.598;2022-11-20T01:36:19;0.50;99.90
51853;DHT22;37894;53.172;6.598;2022-11-20T01:38:45;0.70;99.90
51853;DHT22;37894;53.172;6.598;2022-11-20T01:41:12;0.50;99.90
51853;DHT22;37894;53.172;6.598;2022-11-20T01:43:58;0.50;99.90
51853;DHT22;37894;53.172;6.598;2022-11-20T01:46:23;0.20;99.90
51853;DHT22;37894;53.172;6.598;2022-11-20T01:49:08;0.60;99.90
51853;DHT22;37894;53.172;6.598;2022-11-20T01:51:44;0.50;99.90
51853;DHT22;37894;53.172;6.598;2022-11-20T01:54:21;0.50;99.90
51853;DHT22;37894;53.172;6.598;2022-11-20T01:56:51;0.60;99.90
51853;DHT22;37894;53.172;6.598;2022-11-20T01:59:19;0.50;99.90
51853;DHT22;37894;53.172;6.598;2022-11-20T02:01:45;0.60;99.90
51853;DHT22;37894;53.172;6.598;2022-11-20T02:04:12;0.50;99.90
51853;DHT22;37894;53.172;6.598;2022-11-20T02:06:48;0.60;99.90
51853;DHT22;37894;53.172;6.598;2022-11-20T02:09:15;0.50;99.90
51853;DHT22;37894;53.172;6.598;2022-11-20T02:14:08;0.30;99.90
51853;DHT22;37894;53.172;6.598;2022-11-20T02:16:36;0.40;99.90
51853;DHT22;37894;53.172;6.598;2022-11-20T02:19:07;0.50;99.90
51853;DHT22;37894;53.172;6.598;2022-11-20T02:22:01;0.40;99.90
51853;DHT22;37894;53.172;6.598;2022-11-20T02:27:06;-0.20;99.90
51853;DHT22;37894;53.172;6.598;2022-11-20T02:29:37;0.40;99.90
51853;DHT22;37894;53.172;6.598;2022-11-20T02:36:56;0.50;99.90
51853;DHT22;37894;53.172;6.598;2022-11-20T02:39:25;0.50;99.90
51853;DHT22;37894;53.172;6.598;2022-11-20T02:41:54;0.50;99.90
51853;DHT22;37894;53.172;6.598;2022-11-20T02:46:47;-0.20;99.90
51853;DHT22;37894;53.172;6.598;2022-11-20T02:51:38;1.70;99.90
51853;DHT22;37894;53.172;6.598;2022-11-20T02:54:04;0.70;99.90
51853;DHT22;37894;53.172;6.598;2022-11-20T02:56:31;1.00;99.90
51853;DHT22;37894;53.172;6.598;2022-11-20T02:58:56;0.60;99.90
51853;DHT22;37894;53.172;6.598;2022-11-20T03:01:22;0.70;99.90
51853;DHT22;37894;53.172;6.598;2022-11-20T03:03:48;0.20;99.90
51853;DHT22;37894;53.172;6.598;2022-11-20T03:06:15;0.70;99.90
51853;DHT22;37894;53.172;6.598;2022-11-20T03:11:08;0.40;99.90
51853;DHT22;37894;53.172;6.598;2022-11-20T03:13:35;1.40;99.90
51853;DHT22;37894;53.172;6.598;2022-11-20T03:16:27;0.70;99.90
51853;DHT22;37894;53.172;6.598;2022-11-20T03:21:19;0.60;99.90
51853;DHT22;37894;53.172;6.598;2022-11-20T03:26:19;0.70;99.90
51853;DHT22;37894;53.172;6.598;2022-11-20T03:28:52;0.70;99.90
51853;DHT22;37894;53.172;6.598;2022-11-20T03:31:21;0.80;99.90
51853;DHT22;37894;53.172;6.598;2022-11-20T03:33:47;0.40;99.90
51853;DHT22;37894;53.172;6.598;2022-11-20T03:36:15;0.50;99.90
51853;DHT22;37894;53.172;6.598;2022-11-20T03:38:41;0.90;99.90
51853;DHT22;37894;53.172;6.598;2022-11-20T03:41:09;-0.10;99.90
51853;DHT22;37894;53.172;6.598;2022-11-20T03:43:36;0.80;99.90
51853;DHT22;37894;53.172;6.598;2022-11-20T03:46:02;0.70;99.90
51853;DHT22;37894;53.172;6.598;2022-11-20T03:48:28;3.10;99.90
51853;DHT22;37894;53.172;6.598;2022-11-20T03:51:30;0.60;99.90
51853;DHT22;37894;53.172;6.598;2022-11-20T03:54:00;0.60;99.90
51853;DHT22;37894;53.172;6.598;2022-11-20T03:56:29;1.00;99.90
51853;DHT22;37894;53.172;6.598;2022-11-20T04:01:32;0.80;99.90
51853;DHT22;37894;53.172;6.598;2022-11-20T04:06:36;0.60;99.90
51853;DHT22;37894;53.172;6.598;2022-11-20T04:09:02;0.70;99.90
51853;DHT22;37894;53.172;6.598;2022-11-20T04:11:36;0.50;99.90
51853;DHT22;37894;53.172;6.598;2022-11-20T04:14:04;1.50;99.90
51853;DHT22;37894;53.172;6.598;2022-11-20T04:16:33;0.70;99.90
51853;DHT22;37894;53.172;6.598;2022-11-20T04:19:01;0.70;99.90
51853;DHT22;37894;53.172;6.598;2022-11-20T04:23:54;0.60;99.90
51853;DHT22;37894;53.172;6.598;2022-11-20T04:26:21;0.70;99.90
51853;DHT22;37894;53.172;6.598;2022-11-20T04:28:47;0.60;99.90
51853;DHT22;37894;53.172;6.598;2022-11-20T04:31:15;0.60;99.90
51853;DHT22;37894;53.172;6.598;2022-11-20T04:33:41;0.00;99.90
51853;DHT22;37894;53.172;6.598;2022-11-20T04:36:11;0.60;99.90
51853;DHT22;37894;53.172;6.598;2022-11-20T04:41:05;0.80;99.90
51853;DHT22;37894;53.172;6.598;2022-11-20T04:43:32;0.70;99.90
51853;DHT22;37894;53.172;6.598;2022-11-20T04:45:59;0.70;99.90
51853;DHT22;37894;53.172;6.598;2022-11-20T04:48:27;0.70;99.90
51853;DHT22;37894;53.172;6.598;2022-11-20T04:50:53;0.70;99.90
51853;DHT22;37894;53.172;6.598;2022-11-20T04:53:20;0.20;99.90
51853;DHT22;37894;53.172;6.598;2022-11-20T04:58:12;0.90;99.90
51853;DHT22;37894;53.172;6.598;2022-11-20T05:00:38;0.80;99.90
51853;DHT22;37894;53.172;6.598;2022-11-20T05:03:04;0.80;99.90
51853;DHT22;37894;53.172;6.598;2022-11-20T05:05:30;0.80;99.90
51853;DHT22;37894;53.172;6.598;2022-11-20T05:07:57;0.80;99.90
51853;DHT22;37894;53.172;6.598;2022-11-20T05:10:23;0.70;99.90
51853;DHT22;37894;53.172;6.598;2022-11-20T05:15:15;0.80;99.90
51853;DHT22;37894;53.172;6.598;2022-11-20T05:32:18;1.60;99.90
51853;DHT22;37894;53.172;6.598;2022-11-20T05:34:43;0.10;99.90
51853;DHT22;37894;53.172;6.598;2022-11-20T05:39:35;0.50;99.90
51853;DHT22;37894;53.172;6.598;2022-11-20T05:42:00;0.30;99.90
51853;DHT22;37894;53.172;6.598;2022-11-20T05:54:29;1.90;99.90
51853;DHT22;37894;53.172;6.598;2022-11-20T05:56:54;0.70;99.90
51853;DHT22;37894;53.172;6.598;2022-11-20T05:59:20;0.80;99.90
51853;DHT22;37894;53.172;6.598;2022-11-20T06:06:38;0.60;99.90
51853;DHT22;37894;53.172;6.598;2022-11-20T06:09:03;0.60;99.90
51853;DHT22;37894;53.172;6.598;2022-11-20T06:11:29;0.70;99.90
51853;DHT22;37894;53.172;6.598;2022-11-20T06:13:55;0.70;99.90
51853;DHT22;37894;53.172;6.598;2022-11-20T06:16:20;0.80;99.90
51853;DHT22;37894;53.172;6.598;2022-11-20T06:18:47;1.60;99.90
51853;DHT22;37894;53.172;6.598;2022-11-20T06:21:18;0.70;99.90
51853;DHT22;37894;53.172;6.598;2022-11-20T06:26:16;1.10;99.90
51853;DHT22;37894;53.172;6.598;2022-11-20T06:28:42;-0.20;99.90
51853;DHT22;37894;53.172;6.598;2022-11-20T06:31:10;0.80;99.90
51853;DHT22;37894;53.172;6.598;2022-11-20T06:33:37;0.90;99.90
51853;DHT22;37894;53.172;6.598;2022-11-20T06:36:03;0.50;99.90
51853;DHT22;37894;53.172;6.598;2022-11-20T06:38:29;0.80;99.90
51853;DHT22;37894;53.172;6.598;2022-11-20T06:40:56;0.90;99.90
51853;DHT22;37894;53.172;6.598;2022-11-20T06:43:25;1.00;99.90
51853;DHT22;37894;53.172;6.598;2022-11-20T06:45:55;1.00;99.90
51853;DHT22;37894;53.172;6.598;2022-11-20T06:48:22;0.90;99.90
51853;DHT22;37894;53.172;6.598;2022-11-20T06:50:48;0.90;99.90
51853;DHT22;37894;53.172;6.598;2022-11-20T06:53:14;0.90;99.90
51853;DHT22;37894;53.172;6.598;2022-11-20T06:55:43;0.90;99.90
51853;DHT22;37894;53.172;6.598;2022-11-20T06:58:10;0.90;99.90
51853;DHT22;37894;53.172;6.598;2022-11-20T07:00:35;0.90;99.90
51853;DHT22;37894;53.172;6.598;2022-11-20T07:03:05;0.80;99.90
51853;DHT22;37894;53.172;6.598;2022-11-20T07:05:31;0.20;99.90
51853;DHT22;37894;53.172;6.598;2022-11-20T07:07:57;0.90;99.90
51853;DHT22;37894;53.172;6.598;2022-11-20T07:10:23;0.10;99.90
51853;DHT22;37894;53.172;6.598;2022-11-20T07:12:50;0.90;99.90
51853;DHT22;37894;53.172;6.598;2022-11-20T07:15:16;1.00;99.90
51853;DHT22;37894;53.172;6.598;2022-11-20T07:17:42;0.90;99.90
51853;DHT22;37894;53.172;6.598;2022-11-20T07:20:08;1.00;99.90
51853;DHT22;37894;53.172;6.598;2022-11-20T07:22:34;1.00;99.90
51853;DHT22;37894;53.172;6.598;2022-11-20T07:27:27;1.00;99.90
51853;DHT22;37894;53.172;6.598;2022-11-20T07:29:53;0.50;99.90
51853;DHT22;37894;53.172;6.598;2022-11-20T07:32:18;1.10;99.90
51853;DHT22;37894;53.172;6.598;2022-11-20T07:34:44;0.50;99.90
51853;DHT22;37894;53.172;6.598;2022-11-20T07:37:10;1.10;99.90
51853;DHT22;37894;53.172;6.598;2022-11-20T07:39:35;0.40;99.90
51853;DHT22;37894;53.172;6.598;2022-11-20T07:42:01;2.20;99.90
51853;DHT22;37894;53.172;6.598;2022-11-20T07:44:27;1.10;99.90
51853;DHT22;37894;53.172;6.598;2022-11-20T07:51:44;1.90;99.90
51853;DHT22;37894;53.172;6.598;2022-11-20T07:54:10;1.10;99.90
51853;DHT22;37894;53.172;6.598;2022-11-20T07:56:36;1.20;99.90
51853;DHT22;37894;53.172;6.598;2022-11-20T07:59:01;1.20;99.90
51853;DHT22;37894;53.172;6.598;2022-11-20T08:01:28;1.20;99.90
51853;DHT22;37894;53.172;6.598;2022-11-20T08:03:54;1.20;99.90
51853;DHT22;37894;53.172;6.598;2022-11-20T08:06:19;0.70;99.90
51853;DHT22;37894;53.172;6.598;2022-11-20T08:08:45;0.40;99.90
51853;DHT22;37894;53.172;6.598;2022-11-20T08:11:11;1.30;99.90
51853;DHT22;37894;53.172;6.598;2022-11-20T08:16:47;1.40;99.90
51853;DHT22;37894;53.172;6.598;2022-11-20T08:19:15;0.70;99.90
51853;DHT22;37894;53.172;6.598;2022-11-20T08:21:42;1.30;99.90
51853;DHT22;37894;53.172;6.598;2022-11-20T08:24:08;1.20;99.90
51853;DHT22;37894;53.172;6.598;2022-11-20T08:26:35;1.30;99.90
51853;DHT22;37894;53.172;6.598;2022-11-20T08:29:01;1.40;99.90
51853;DHT22;37894;53.172;6.598;2022-11-20T08:31:27;0.40;99.90
51853;DHT22;37894;53.172;6.598;2022-11-20T08:33:53;2.10;99.90
51853;DHT22;37894;53.172;6.598;2022-11-20T08:36:20;1.30;99.90
51853;DHT22;37894;53.172;6.598;2022-11-20T08:38:53;1.10;99.90
51853;DHT22;37894;53.172;6.598;2022-11-20T08:41:20;1.50;99.90
51853;DHT22;37894;53.172;6.598;2022-11-20T08:43:50;1.30;99.90
51853;DHT22;37894;53.172;6.598;2022-11-20T08:46:16;1.60;99.90
51853;DHT22;37894;53.172;6.598;2022-11-20T08:48:42;0.40;99.90
51853;DHT22;37894;53.172;6.598;2022-11-20T08:51:08;1.10;99.90
51853;DHT22;37894;53.172;6.598;2022-11-20T08:58:26;1.60;99.90
51853;DHT22;37894;53.172;6.598;2022-11-20T09:03:18;1.30;99.90
51853;DHT22;37894;53.172;6.598;2022-11-20T09:08:10;1.60;99.90
51853;DHT22;37894;53.172;6.598;2022-11-20T09:10:36;1.70;99.90
51853;DHT22;37894;53.172;6.598;2022-11-20T09:15:31;1.70;99.90
51853;DHT22;37894;53.172;6.598;2022-11-20T09:18:01;1.70;99.90
51853;DHT22;37894;53.172;6.598;2022-11-20T09:20:28;1.60;99.90
51853;DHT22;37894;53.172;6.598;2022-11-20T09:22:55;1.50;99.90
51853;DHT22;37894;53.172;6.598;2022-11-20T09:25:21;1.50;99.90
51853;DHT22;37894;53.172;6.598;2022-11-20T09:27:47;1.50;99.90
51853;DHT22;37894;53.172;6.598;2022-11-20T09:30:16;1.60;99.90
51853;DHT22;37894;53.172;6.598;2022-11-20T09:35:08;1.40;99.90
51853;DHT22;37894;53.172;6.598;2022-11-20T09:37:34;1.50;99.90
51853;DHT22;37894;53.172;6.598;2022-11-20T09:40:00;0.80;99.90
51853;DHT22;37894;53.172;6.598;2022-11-20T09:45:21;1.60;99.90
51853;DHT22;37894;53.172;6.598;2022-11-20T09:53:45;2.50;99.90
51853;DHT22;37894;53.172;6.598;2022-11-20T09:56:12;1.50;99.90
51853;DHT22;37894;53.172;6.598;2022-11-20T09:58:42;1.50;99.90
51853;DHT22;37894;53.172;6.598;2022-11-20T10:03:50;1.50;99.90
51853;DHT22;37894;53.172;6.598;2022-11-20T10:06:28;1.50;99.90
51853;DHT22;37894;53.172;6.598;2022-11-20T10:09:18;1.40;99.90
51853;DHT22;37894;53.172;6.598;2022-11-20T10:17:15;1.20;99.90
51853;DHT22;37894;53.172;6.598;2022-11-20T10:22:31;1.50;99.90
51853;DHT22;37894;53.172;6.598;2022-11-20T10:25:22;1.40;99.90
51853;DHT22;37894;53.172;6.598;2022-11-20T10:30:17;1.40;99.90
51853;DHT22;37894;53.172;6.598;2022-11-20T10:32:47;1.50;99.90
51853;DHT22;37894;53.172;6.598;2022-11-20T10:37:56;1.70;99.90
51853;DHT22;37894;53.172;6.598;2022-11-20T10:40:40;1.80;99.90
51853;DHT22;37894;53.172;6.598;2022-11-20T10:43:32;2.90;99.90
51853;DHT22;37894;53.172;6.598;2022-11-20T10:46:01;1.60;99.90
51853;DHT22;37894;53.172;6.598;2022-11-20T10:48:31;1.80;99.90
51853;DHT22;37894;53.172;6.598;2022-11-20T10:54:05;1.70;99.90
51853;DHT22;37894;53.172;6.598;2022-11-20T11:02:18;1.90;99.90
51853;DHT22;37894;53.172;6.598;2022-11-20T11:04:47;1.80;99.90
51853;DHT22;37894;53.172;6.598;2022-11-20T11:07:35;1.80;99.90
51853;DHT22;37894;53.172;6.598;2022-11-20T11:10:19;2.20;99.90
51853;DHT22;37894;53.172;6.598;2022-11-20T11:12:47;2.00;99.90
51853;DHT22;37894;53.172;6.598;2022-11-20T11:15:44;2.20;99.90
51853;DHT22;37894;53.172;6.598;2022-11-20T11:18:11;1.40;99.90
51853;DHT22;37894;53.172;6.598;2022-11-20T11:20:37;2.20;99.90
51853;DHT22;37894;53.172;6.598;2022-11-20T11:25:35;2.10;99.90
51853;DHT22;37894;53.172;6.598;2022-11-20T11:28:22;1.50;99.90
51853;DHT22;37894;53.172;6.598;2022-11-20T11:30:50;2.20;99.90
51853;DHT22;37894;53.172;6.598;2022-11-20T11:38:30;1.80;99.90
51853;DHT22;37894;53.172;6.598;2022-11-20T11:43:26;2.00;99.90
51853;DHT22;37894;53.172;6.598;2022-11-20T11:49:21;2.30;99.90
51853;DHT22;37894;53.172;6.598;2022-11-20T11:52:07;2.20;99.90
51853;DHT22;37894;53.172;6.598;2022-11-20T11:54:43;2.10;99.90
51853;DHT22;37894;53.172;6.598;2022-11-20T11:57:20;2.30;99.90
51853;DHT22;37894;53.172;6.598;2022-11-20T12:00:08;1.70;99.90
51853;DHT22;37894;53.172;6.598;2022-11-20T12:02:38;2.10;99.90
51853;DHT22;37894;53.172;6.598;2022-11-20T12:05:23;2.20;99.90
51853;DHT22;37894;53.172;6.598;2022-11-20T12:15:56;2.50;99.90
51853;DHT22;37894;53.172;6.598;2022-11-20T12:18:22;2.60;99.90
51853;DHT22;37894;53.172;6.598;2022-11-20T12:21:18;2.30;99.90
51853;DHT22;37894;53.172;6.598;2022-11-20T12:24:06;2.60;99.90
51853;DHT22;37894;53.172;6.598;2022-11-20T12:29:36;3.00;99.90
51853;DHT22;37894;53.172;6.598;2022-11-20T12:40:31;3.40;99.90
51853;DHT22;37894;53.172;6.598;2022-11-20T12:43:10;3.30;99.90
51853;DHT22;37894;53.172;6.598;2022-11-20T13:05:37;3.10;99.90
51853;DHT22;37894;53.172;6.598;2022-11-20T13:08:04;3.20;99.90
51853;DHT22;37894;53.172;6.598;2022-11-20T13:19:16;3.10;99.90
51853;DHT22;37894;53.172;6.598;2022-11-20T13:21:45;3.40;99.90
51853;DHT22;37894;53.172;6.598;2022-11-20T13:27:16;2.80;99.90
51853;DHT22;37894;53.172;6.598;2022-11-20T13:29:59;3.50;99.90
51853;DHT22;37894;53.172;6.598;2022-11-20T13:32:26;3.40;99.90
51853;DHT22;37894;53.172;6.598;2022-11-20T13:35:04;3.40;99.90
51853;DHT22;37894;53.172;6.598;2022-11-20T13:37:32;3.40;99.90
51853;DHT22;37894;53.172;6.598;2022-11-20T13:40:25;3.40;99.90
51853;DHT22;37894;53.172;6.598;2022-11-20T13:42:56;3.40;99.90
51853;DHT22;37894;53.172;6.598;2022-11-20T13:45:26;3.30;99.90
51853;DHT22;37894;53.172;6.598;2022-11-20T13:47:53;3.40;99.90
51853;DHT22;37894;53.172;6.598;2022-11-20T13:50:27;3.30;99.90
51853;DHT22;37894;53.172;6.598;2022-11-20T13:53:14;3.60;99.90
51853;DHT22;37894;53.172;6.598;2022-11-20T13:55:54;2.80;99.90
51853;DHT22;37894;53.172;6.598;2022-11-20T14:01:16;2.70;99.90
51853;DHT22;37894;53.172;6.598;2022-11-20T14:03:45;3.20;99.90
51853;DHT22;37894;53.172;6.598;2022-11-20T14:06:18;2.60;99.90
51853;DHT22;37894;53.172;6.598;2022-11-20T14:08:47;3.30;99.90
51853;DHT22;37894;53.172;6.598;2022-11-20T14:11:20;3.30;99.90
51853;DHT22;37894;53.172;6.598;2022-11-20T14:16:22;3.30;99.90
51853;DHT22;37894;53.172;6.598;2022-11-20T14:18:47;3.60;99.90
51853;DHT22;37894;53.172;6.598;2022-11-20T14:23:52;3.40;99.90
51853;DHT22;37894;53.172;6.598;2022-11-20T14:26:18;3.50;99.90
51853;DHT22;37894;53.172;6.598;2022-11-20T14:28:50;3.30;99.90
51853;DHT22;37894;53.172;6.598;2022-11-20T14:31:25;3.20;99.90
51853;DHT22;37894;53.172;6.598;2022-11-20T14:33:53;3.30;99.90
51853;DHT22;37894;53.172;6.598;2022-11-20T14:36:23;2.80;99.90
51853;DHT22;37894;53.172;6.598;2022-11-20T14:38:51;3.20;99.90
51853;DHT22;37894;53.172;6.598;2022-11-20T14:41:22;3.00;99.90
51853;DHT22;37894;53.172;6.598;2022-11-20T14:43:57;3.10;99.90
51853;DHT22;37894;53.172;6.598;2022-11-20T14:46:25;3.00;99.90
51853;DHT22;37894;53.172;6.598;2022-11-20T14:48:55;3.00;99.90
51853;DHT22;37894;53.172;6.598;2022-11-20T14:53:54;3.00;99.90
51853;DHT22;37894;53.172;6.598;2022-11-20T14:56:23;3.60;99.90
51853;DHT22;37894;53.172;6.598;2022-11-20T14:58:57;2.70;99.90
51853;DHT22;37894;53.172;6.598;2022-11-20T15:01:28;2.60;99.90
51853;DHT22;37894;53.172;6.598;2022-11-20T15:04:11;2.40;99.90
51853;DHT22;37894;53.172;6.598;2022-11-20T15:06:38;2.70;99.90
51853;DHT22;37894;53.172;6.598;2022-11-20T15:09:15;2.50;99.90
51853;DHT22;37894;53.172;6.598;2022-11-20T15:11:58;2.60;99.90
51853;DHT22;37894;53.172;6.598;2022-11-20T15:14:30;2.10;99.90
51853;DHT22;37894;53.172;6.598;2022-11-20T15:17:02;2.50;99.90
51853;DHT22;37894;53.172;6.598;2022-11-20T15:21:57;2.40;99.90
51853;DHT22;37894;53.172;6.598;2022-11-20T15:24:26;2.20;99.90
51853;DHT22;37894;53.172;6.598;2022-11-20T15:29:21;2.30;99.90
51853;DHT22;37894;53.172;6.598;2022-11-20T15:34:16;1.80;99.90
51853;DHT22;37894;53.172;6.598;2022-11-20T15:36:42;2.90;99.90
51853;DHT22;37894;53.172;6.598;2022-11-20T15:39:09;2.10;99.90
51853;DHT22;37894;53.172;6.598;2022-11-20T15:41:37;2.00;99.90
51853;DHT22;37894;53.172;6.598;2022-11-20T15:44:04;2.10;99.90
51853;DHT22;37894;53.172;6.598;2022-11-20T15:46:36;2.00;99.90
51853;DHT22;37894;53.172;6.598;2022-11-20T15:49:04;2.00;99.90
51853;DHT22;37894;53.172;6.598;2022-11-20T15:51:35;2.00;99.90
51853;DHT22;37894;53.172;6.598;2022-11-20T15:54:19;2.00;99.90
51853;DHT22;37894;53.172;6.598;2022-11-20T15:56:46;2.00;99.90
51853;DHT22;37894;53.172;6.598;2022-11-20T16:01:40;3.10;99.90
51853;DHT22;37894;53.172;6.598;2022-11-20T16:04:14;2.00;99.90
51853;DHT22;37894;53.172;6.598;2022-11-20T16:06:40;1.50;99.90
51853;DHT22;37894;53.172;6.598;2022-11-20T16:09:07;1.80;99.90
51853;DHT22;37894;53.172;6.598;2022-11-20T16:11:33;2.90;99.90
51853;DHT22;37894;53.172;6.598;2022-11-20T16:16:45;2.00;99.90
51853;DHT22;37894;53.172;6.598;2022-11-20T16:19:12;1.80;99.90
51853;DHT22;37894;53.172;6.598;2022-11-20T16:21:38;2.00;99.90
51853;DHT22;37894;53.172;6.598;2022-11-20T16:24:08;1.80;99.90
51853;DHT22;37894;53.172;6.598;2022-11-20T16:26:35;1.90;99.90
51853;DHT22;37894;53.172;6.598;2022-11-20T16:29:02;1.90;99.90
51853;DHT22;37894;53.172;6.598;2022-11-20T16:31:28;1.70;99.90
51853;DHT22;37894;53.172;6.598;2022-11-20T16:34:00;1.10;99.90
51853;DHT22;37894;53.172;6.598;2022-11-20T16:36:26;1.80;99.90
51853;DHT22;37894;53.172;6.598;2022-11-20T16:38:53;1.70;99.90
51853;DHT22;37894;53.172;6.598;2022-11-20T16:43:50;1.80;99.90
51853;DHT22;37894;53.172;6.598;2022-11-20T16:46:19;1.70;99.90
51853;DHT22;37894;53.172;6.598;2022-11-20T16:48:59;1.70;99.90
51853;DHT22;37894;53.172;6.598;2022-11-20T16:51:26;1.70;99.90
51853;DHT22;37894;53.172;6.598;2022-11-20T16:53:52;1.70;99.90
51853;DHT22;37894;53.172;6.598;2022-11-20T16:56:24;2.70;99.90
51853;DHT22;37894;53.172;6.598;2022-11-20T16:58:53;1.70;99.90
51853;DHT22;37894;53.172;6.598;2022-11-20T17:01:20;1.70;99.90
51853;DHT22;37894;53.172;6.598;2022-11-20T17:06:24;1.70;99.90
51853;DHT22;37894;53.172;6.598;2022-11-20T17:08:50;1.70;99.90
51853;DHT22;37894;53.172;6.598;2022-11-20T17:11:17;1.70;99.90
51853;DHT22;37894;53.172;6.598;2022-11-20T17:13:44;1.70;99.90
51853;DHT22;37894;53.172;6.598;2022-11-20T17:16:12;2.90;99.90
51853;DHT22;37894;53.172;6.598;2022-11-20T17:18:38;1.70;99.90
51853;DHT22;37894;53.172;6.598;2022-11-20T17:21:04;1.70;99.90
51853;DHT22;37894;53.172;6.598;2022-11-20T17:23:36;1.60;99.90
51853;DHT22;37894;53.172;6.598;2022-11-20T17:26:07;1.10;99.90
51853;DHT22;37894;53.172;6.598;2022-11-20T17:28:34;1.60;99.90
51853;DHT22;37894;53.172;6.598;2022-11-20T17:31:01;1.70;99.90
51853;DHT22;37894;53.172;6.598;2022-11-20T17:33:27;1.60;99.90
51853;DHT22;37894;53.172;6.598;2022-11-20T17:35:53;1.70;99.90
51853;DHT22;37894;53.172;6.598;2022-11-20T17:45:37;1.50;99.90
51853;DHT22;37894;53.172;6.598;2022-11-20T17:48:03;1.70;99.90
51853;DHT22;37894;53.172;6.598;2022-11-20T17:50:29;0.70;99.90
51853;DHT22;37894;53.172;6.598;2022-11-20T17:52:55;0.80;99.90
51853;DHT22;37894;53.172;6.598;2022-11-20T17:55:20;2.20;99.90
51853;DHT22;37894;53.172;6.598;2022-11-20T18:00:21;1.10;99.90
51853;DHT22;37894;53.172;6.598;2022-11-20T18:02:47;1.90;99.90
51853;DHT22;37894;53.172;6.598;2022-11-20T18:05:13;1.60;99.90
51853;DHT22;37894;53.172;6.598;2022-11-20T18:10:06;1.70;99.90
51853;DHT22;37894;53.172;6.598;2022-11-20T18:12:32;2.10;99.90
51853;DHT22;37894;53.172;6.598;2022-11-20T18:14:58;1.90;99.90
51853;DHT22;37894;53.172;6.598;2022-11-20T18:17:24;0.80;99.90
51853;DHT22;37894;53.172;6.598;2022-11-20T18:19:50;1.60;99.90
51853;DHT22;37894;53.172;6.598;2022-11-20T18:22:18;1.60;99.90
51853;DHT22;37894;53.172;6.598;2022-11-20T18:27:16;1.70;99.90
51853;DHT22;37894;53.172;6.598;2022-11-20T18:32:08;1.30;99.90
51853;DHT22;37894;53.172;6.598;2022-11-20T18:37:00;1.00;99.90
51853;DHT22;37894;53.172;6.598;2022-11-20T18:39:26;1.80;99.90
51853;DHT22;37894;53.172;6.598;2022-11-20T18:41:52;1.70;99.90
51853;DHT22;37894;53.172;6.598;2022-11-20T18:47:27;2.80;99.90
51853;DHT22;37894;53.172;6.598;2022-11-20T18:49:56;1.70;99.90
51853;DHT22;37894;53.172;6.598;2022-11-20T18:52:27;1.70;99.90
51853;DHT22;37894;53.172;6.598;2022-11-20T18:54:54;1.60;99.90
51853;DHT22;37894;53.172;6.598;2022-11-20T18:57:22;1.70;99.90
51853;DHT22;37894;53.172;6.598;2022-11-20T19:02:16;0.00;99.90
51853;DHT22;37894;53.172;6.598;2022-11-20T19:04:42;1.60;99.90
51853;DHT22;37894;53.172;6.598;2022-11-20T19:07:09;1.80;99.90
51853;DHT22;37894;53.172;6.598;2022-11-20T19:09:46;1.20;99.90
51853;DHT22;37894;53.172;6.598;2022-11-20T19:12:12;1.70;99.90
51853;DHT22;37894;53.172;6.598;2022-11-20T19:14:38;1.70;99.90
51853;DHT22;37894;53.172;6.598;2022-11-20T19:17:05;1.60;99.90
51853;DHT22;37894;53.172;6.598;2022-11-20T19:19:35;1.80;99.90
51853;DHT22;37894;53.172;6.598;2022-11-20T19:24:27;1.80;99.90
51853;DHT22;37894;53.172;6.598;2022-11-20T19:26:53;1.90;99.90
51853;DHT22;37894;53.172;6.598;2022-11-20T19:29:21;1.80;99.90
51853;DHT22;37894;53.172;6.598;2022-11-20T19:31:47;1.60;99.90
51853;DHT22;37894;53.172;6.598;2022-11-20T19:34:13;1.70;99.90
51853;DHT22;37894;53.172;6.598;2022-11-20T19:36:40;2.80;99.90
51853;DHT22;37894;53.172;6.598;2022-11-20T19:39:07;1.70;99.90
51853;DHT22;37894;53.172;6.598;2022-11-20T19:41:35;1.10;99.90
51853;DHT22;37894;53.172;6.598;2022-11-20T19:44:06;1.70;99.90
51853;DHT22;37894;53.172;6.598;2022-11-20T19:46:33;1.00;99.90
51853;DHT22;37894;53.172;6.598;2022-11-20T19:51:28;2.70;99.90
51853;DHT22;37894;53.172;6.598;2022-11-20T19:53:55;1.70;99.90
51853;DHT22;37894;53.172;6.598;2022-11-20T19:56:22;1.50;99.90
51853;DHT22;37894;53.172;6.598;2022-11-20T19:58:48;1.50;99.90
51853;DHT22;37894;53.172;6.598;2022-11-20T20:01:16;2.40;99.90
51853;DHT22;37894;53.172;6.598;2022-11-20T20:03:43;1.20;99.90
51853;DHT22;37894;53.172;6.598;2022-11-20T20:06:23;1.90;99.90
51853;DHT22;37894;53.172;6.598;2022-11-20T20:08:57;1.70;99.90
51853;DHT22;37894;53.172;6.598;2022-11-20T20:11:25;1.70;99.90
51853;DHT22;37894;53.172;6.598;2022-11-20T20:13:51;1.80;99.90
51853;DHT22;37894;53.172;6.598;2022-11-20T20:16:19;1.30;99.90
51853;DHT22;37894;53.172;6.598;2022-11-20T20:18:45;1.90;99.90
51853;DHT22;37894;53.172;6.598;2022-11-20T20:21:14;1.80;99.90
51853;DHT22;37894;53.172;6.598;2022-11-20T20:23:40;1.70;99.90
51853;DHT22;37894;53.172;6.598;2022-11-20T20:26:07;1.80;99.90
51853;DHT22;37894;53.172;6.598;2022-11-20T20:28:34;1.80;99.90
51853;DHT22;37894;53.172;6.598;2022-11-20T20:31:08;1.80;99.90
51853;DHT22;37894;53.172;6.598;2022-11-20T20:33:39;1.80;99.90
51853;DHT22;37894;53.172;6.598;2022-11-20T20:36:06;2.30;99.90